Bradley International Airport
KBDL : now visible

Airfield :











YOU CAN JOIN US ON...

 
LOGIN :

Register | Disclaimer

   EN    FR    IT 

 









Legend :    VFR   Marginal VFR   IFR   Intensive IFR   Very Intensive IFR
Visi :
Ceiling :
>= 8 km
>= 3000ft
5 to 8 km
1000 to 3000 ft
1500m to 5 km
500 to 1000 ft
800 to 1500m
200 to 500 ft
< 800m
< 200 ft
Symbols :   Thunderstorms  Fog  Heavy snow  Heavy precipitations  Wind > 20 kt






- Airport Elevation : 173 ft
- IATA code : BDL


KBDL - Bradley International

CURRENT METAR :
  • 252151Z 36004KT 10SM BKN120 BKN180 BKN210 BKN250 09/01 A3028 RMK AO2 SLP254 T00940006 $

EXPIRED METARs :
  • 252051Z 35005KT 10SM FEW040 FEW180 FEW210 BKN250 11/01 A3028 RMK AO2 SLP253 T01060006 53005 $
  • 251951Z 34007KT 10SM FEW040 FEW200 BKN250 11/00 A3026 RMK AO2 SLP248 T01060000 $

TAF KBDL
Valid from the 25 at 20:00 until the 27 at 00:00 UTC


252019Z 2520/2624 36007KT P6SM BKN200
FM260000 03005KT P6SM BKN090
FM260400 05005KT P6SM VCSH OVC070
FM260900 03006KT P6SM VCSH OVC025
FM261300 02005KT P6SM VCSH OVC015
FM261800 03004KT 3SM BR VCSH OVC010
KZBW FIR / North America



MET'MAP, your aeronautical weather chart ! - Copyright ORBIFLY December 2007 - Disclaimer

ORBIFLY MET'MAP TEAM :

Programming & Development : Alexandra Zaïnal
Concept & original design : Baudouin d'Aumeries
Assistance for programming : Marc-Olivier Méhu
Technical & hardware support : Manuel Goepfert

Contact : metmap@orbifly.com




SOURCES & CREDITS :

   NOAA       Earth
Advisory